ADDS METAR Data INFO
IDs: Format: Raw Decoded Include TAF

Data at: 1128 UTC 17 Jul 2018

KANJ 171055Z AUTO 30009KT 10SM CLR 13/11 A2995 RMK AO2 SLP137 T01280111
KANJ 170955Z AUTO 31010KT 10SM CLR 13/11 A2992 RMK AO2 SLP130 T01280111
KANJ 170855Z AUTO 30008KT 10SM CLR 14/11 A2991 RMK AO2 SLP124 T01390111 53006
KANJ 170755Z AUTO 29008KT 10SM CLR 14/11 A2990 RMK AO2 SLP121 T01440111
KANJ 170655Z AUTO 28006KT 10SM CLR 14/11 A2990 RMK AO2 SLP120 T01440111
KANJ 170555Z AUTO 28006KT 10SM CLR 15/11 A2989 RMK AO2 SLP119 T01500111 10217 20144 50002
KANJ 170455Z AUTO 28005KT 10SM CLR 15/11 A2989 RMK AO2 SLP120 T01500106 402670144
KANJ 170355Z AUTO 26005KT 10SM CLR 14/11 A2990 RMK AO2 SLP121 T01440106
KANJ 170255Z AUTO 29004KT 10SM CLR 16/12 A2989 RMK AO2 SLP118 T01610117 52006
KANJ 170155Z AUTO 30006KT 10SM FEW085 17/12 A2988 RMK AO2 SLP115 T01720117
KANJ 170055Z AUTO 30006KT 10SM SCT070 19/12 A2987 RMK AO2 SLP111 T01940122
KANJ 162355Z AUTO 31008G18KT 10SM CLR 22/12 A2987 RMK AO2 PK WND 31026/2300 SLP110 T02170117 10267 20217 53005
KANJ 162255Z AUTO 32013G32KT 9SM CLR 24/11 A2986 RMK AO2 PK WND 33032/2249 SLP106 T02390106
KANJ 162155Z AUTO 32008KT 10SM CLR 26/11 A2985 RMK AO2 SLP102 T02610111
KANJ 162055Z AUTO 31009G17KT 10SM CLR 26/13 A2985 RMK AO2 SLP104 T02560128 55007
KANJ 161955Z AUTO 32011G22KT 10SM CLR 26/13 A2984 RMK AO2 SLP100 T02610128
KANJ 161855Z AUTO 31012G19KT 10SM CLR 25/13 A2986 RMK AO2 SLP105 T02500133
KANJ 161755Z AUTO 31012G18KT 290V350 10SM CLR 24/13 A2988 RMK AO2 SLP112 T02390133 10244 20206 51005
KANJ 161655Z AUTO 30009G17KT 10SM FEW045 24/14 A2987 RMK AO2 SLP110 T02390139
KANJ 161555Z AUTO 30010KT 10SM SCT043 SCT050 BKN070 23/15 A2987 RMK AO2 SLP108 T02330150
KANJ 161455Z AUTO 28009KT 10SM BKN075 23/16 A2986 RMK AO2 SLP106 T02280156 55000
KANJ 161355Z AUTO 29007KT 10SM FEW009 22/18 A2986 RMK AO2 SLP106 T02220183
KANJ 161343Z AUTO 28007KT 10SM SCT010 21/17 A2986 RMK AO2 T02110172
KANJ 161312Z AUTO 26005KT 10SM BKN010 BKN090 22/19 A2986 RMK AO2 CIG 008V012 T02170189
KANJ 161304Z AUTO 24003KT 10SM SCT009 BKN090 22/19 A2986 RMK AO2 T02170194
KANJ 161255Z AUTO 30004KT 10SM FEW011 SCT090 21/19 A2986 RMK AO2 SLP104 T02110189
KANJ 161231Z AUTO 24003KT 10SM FEW013 SCT021 21/19 A2986 RMK AO2 T02110194
KANJ 161211Z AUTO 28004KT 8SM SCT012 BKN018 21/20 A2986 RMK AO2 T02110200
KANJ 161155Z AUTO 31003KT 7SM SCT017 21/19 A2986 RMK AO2 SLP105 60000 T02060194 10206 20194 58003
KANJ 161111Z AUTO 00000KT 3SM BR SCT003 21/19 A2985 RMK AO2 LTG DSNT NW T02060194
KANJ 161055Z AUTO 00000KT 2SM BR OVC003 21/20 A2986 RMK AO2 LTG DSNT NW RAE02 SLP104 P0000 T02060200
KANJ 161026Z AUTO 00000KT 2 1/2SM BR OVC002 21/20 A2986 RMK AO2 RAE02 P0000 T02060200
KANJ 161015Z AUTO 24005KT 1 1/4SM BR OVC002 21/20 A2987 RMK AO2 RAE02 P0000 T02060200
KANJ 160955Z AUTO VRB03KT 1/2SM -RA FG VV002 20/19 A2988 RMK AO2 LTG DSNT SW AND W RAB29 SLP112 P0000 T02000194
KANJ 160855Z AUTO 00000KT 1/4SM FG VV002 20/19 A2987 RMK AO2 LTG DSNT W SLP109 T02000194 56007
KANJ 160830Z AUTO 00000KT 1/2SM FG VV002 20/19 A2987 RMK AO2 LTG DSNT W AND NW T02000194
KANJ 160819Z AUTO 00000KT 1 3/4SM BR OVC003 20/19 A2987 RMK AO2 LTG DSNT W T02000194
KANJ 160755Z AUTO 00000KT 6SM BR OVC004 20/19 A2988 RMK AO2 SLP111 T02000194
KANJ 160735Z AUTO 00000KT 8SM BKN005 20/19 A2987 RMK AO2 T02000189
KANJ 160726Z AUTO 00000KT 8SM SCT006 20/18 A2987 RMK AO2 T02000183
KANJ 160655Z AUTO 00000KT 10SM CLR 19/18 A2988 RMK AO2 SLP113 T01940178
KANJ 160555Z AUTO 00000KT 10SM CLR 19/18 A2989 RMK AO2 SLP116 T01940178 10289 20189 56006
KANJ 160455Z AUTO 00000KT 10SM CLR 21/18 A2989 RMK AO2 SLP117 T02060183 403330161
KANJ 160355Z AUTO 00000KT 10SM CLR 22/18 A2991 RMK AO2 SLP120 T02170178
KANJ 160255Z AUTO 21004KT 10SM CLR 23/18 A2991 RMK AO2 SLP122 T02280178 53003
KANJ 160155Z AUTO 22004KT 10SM CLR 24/18 A2990 RMK AO2 SLP120 T02390183
KANJ 160055Z AUTO 21008KT 10SM CLR 27/20 A2990 RMK AO2 SLP118 T02720200
KANJ 152355Z AUTO 21007KT 10SM CLR 29/19 A2990 RMK AO2 SLP119 T02890189 10333 20289 55006